createdAt,value
2018-04-27T06:57:05.264Z,1008.77
2018-04-27T06:58:04.612Z,1008.78
2018-04-27T06:59:57.486Z,1008.78
2018-04-27T07:00:57.457Z,1008.79
2018-04-27T07:01:57.427Z,1008.76
2018-04-27T07:02:57.398Z,1008.78
2018-04-27T07:03:57.378Z,1008.81
2018-04-27T07:04:57.340Z,1008.78
2018-04-27T07:05:57.317Z,1008.79
2018-04-27T07:06:57.285Z,1008.85
2018-04-27T07:07:57.264Z,1008.81
2018-04-27T07:08:57.229Z,1008.83
2018-04-27T07:09:57.206Z,1008.86
2018-04-27T07:10:57.190Z,1008.83
2018-04-27T07:11:57.151Z,1008.75
2018-04-27T07:12:57.127Z,1008.76
2018-04-27T07:13:57.095Z,1008.76
2018-04-27T07:14:57.072Z,1008.78
2018-04-27T07:15:57.050Z,1008.75
2018-04-27T07:16:57.051Z,1008.75
2018-04-27T07:17:56.994Z,1008.77
2018-04-27T07:18:56.964Z,1008.79
2018-04-27T07:19:56.935Z,1008.79
2018-04-27T07:20:56.918Z,1008.77
2018-04-27T07:21:56.890Z,1008.80
2018-04-27T07:22:56.868Z,1008.77
2018-04-27T07:23:56.832Z,1008.77
2018-04-27T07:24:56.821Z,1008.78
2018-04-27T07:25:56.853Z,1008.70
2018-04-27T07:26:56.759Z,1008.75
2018-04-27T07:27:56.745Z,1008.76
2018-04-27T07:28:56.732Z,1008.76
2018-04-27T07:29:56.682Z,1008.76
2018-04-27T07:30:56.665Z,1008.80
2018-04-27T07:31:56.624Z,1008.75
2018-04-27T07:32:56.610Z,1008.76
2018-04-27T07:33:56.591Z,1008.77
2018-04-27T07:34:57.548Z,1008.76
2018-04-27T07:35:56.529Z,1008.76
2018-04-27T07:36:56.497Z,1008.75
2018-04-27T07:37:56.475Z,1008.72
2018-04-27T07:38:56.444Z,1008.74
2018-04-27T07:39:56.428Z,1008.75
2018-04-27T07:40:56.393Z,1008.75
2018-04-27T07:41:56.373Z,1008.74
2018-04-27T07:42:56.346Z,1008.72
2018-04-27T07:43:56.316Z,1008.76
2018-04-27T07:44:56.293Z,1008.77
2018-04-27T07:45:56.274Z,1008.70
2018-04-27T07:46:56.240Z,1008.70
2018-04-27T07:47:56.223Z,1008.69
2018-04-27T07:48:56.190Z,1008.70
2018-04-27T07:49:56.165Z,1008.70
2018-04-27T07:50:56.146Z,1008.69
2018-04-27T07:51:56.112Z,1008.64
2018-04-27T07:52:56.099Z,1008.66
2018-04-27T07:53:56.061Z,1008.64
2018-04-27T07:54:56.037Z,1008.65
2018-04-27T07:56:55.990Z,1008.61
2018-04-27T07:57:55.965Z,1008.62
2018-04-27T07:58:55.978Z,1008.63
2018-04-27T07:59:55.918Z,1008.65
2018-04-27T08:00:55.892Z,1008.66
2018-04-27T08:01:55.862Z,1008.66
2018-04-27T08:02:55.839Z,1008.64
2018-04-27T08:03:55.810Z,1008.64
2018-04-27T08:04:55.788Z,1008.62
2018-04-27T08:05:55.764Z,1008.56
2018-04-27T08:06:55.735Z,1008.55
2018-04-27T08:07:55.714Z,1008.57
2018-04-27T08:08:55.717Z,1008.63
2018-04-27T08:09:55.662Z,1008.58
2018-04-27T08:10:55.635Z,1008.56
2018-04-27T08:11:55.620Z,1008.55
2018-04-27T08:12:55.585Z,1008.56
2018-04-27T08:13:55.565Z,1008.53
2018-04-27T08:14:55.536Z,1008.52
2018-04-27T08:15:55.511Z,1008.51
2018-04-27T08:16:55.486Z,1008.50
2018-04-27T08:17:55.461Z,1008.52
2018-04-27T08:18:55.433Z,1008.49
2018-04-27T08:19:55.412Z,1008.50
2018-04-27T08:20:55.384Z,1008.49
2018-04-27T08:21:55.357Z,1008.45
2018-04-27T08:22:55.339Z,1008.46
2018-04-27T08:23:55.307Z,1008.48
2018-04-27T08:24:55.286Z,1008.48
2018-04-27T08:25:55.257Z,1008.43
2018-04-27T08:26:55.238Z,1008.41
2018-04-27T08:27:55.214Z,1008.43
2018-04-27T08:28:55.179Z,1008.48
2018-04-27T08:29:55.157Z,1008.45
2018-04-27T08:30:55.132Z,1008.47
2018-04-27T08:31:55.126Z,1008.47
2018-04-27T08:32:55.084Z,1008.48
2018-04-27T08:33:55.057Z,1008.51
2018-04-27T08:34:55.043Z,1008.46
2018-04-27T08:35:55.027Z,1008.48
2018-04-27T08:36:54.982Z,1008.41
2018-04-27T08:37:54.966Z,1008.40
2018-04-27T08:38:54.948Z,1008.36
2018-04-27T08:39:54.905Z,1008.39
2018-04-27T08:40:54.889Z,1008.35
2018-04-27T08:41:54.861Z,1008.34
2018-04-27T08:42:54.837Z,1008.34
2018-04-27T08:43:54.827Z,1008.37
2018-04-27T08:44:54.788Z,1008.29
2018-04-27T08:45:54.767Z,1008.29
2018-04-27T08:46:54.732Z,1008.32
2018-04-27T08:47:54.713Z,1008.29
2018-04-27T08:48:54.693Z,1008.30
2018-04-27T08:49:54.667Z,1008.31
2018-04-27T08:50:54.639Z,1008.32
2018-04-27T08:51:54.668Z,1008.34
2018-04-27T08:52:54.598Z,1008.36
2018-04-27T08:53:54.567Z,1008.34
2018-04-27T08:54:54.544Z,1008.27
2018-04-27T08:55:54.525Z,1008.33
2018-04-27T08:56:54.492Z,1008.34
2018-04-27T08:57:54.504Z,1008.34
2018-04-27T08:58:54.453Z,1008.34
2018-04-27T08:59:54.431Z,1008.31
2018-04-27T09:00:54.401Z,1008.31
2018-04-27T09:01:54.372Z,1008.36
2018-04-27T09:02:54.365Z,1008.30
2018-04-27T09:03:54.343Z,1008.39
2018-04-27T09:04:54.307Z,1008.40
2018-04-27T09:05:54.288Z,1008.39
2018-04-27T09:06:54.266Z,1008.35
2018-04-27T09:07:54.232Z,1008.38
2018-04-27T09:08:54.209Z,1008.32
2018-04-27T09:09:54.192Z,1008.32
2018-04-27T09:10:54.165Z,1008.29
2018-04-27T09:11:54.134Z,1008.30
2018-04-27T09:12:54.121Z,1008.30
2018-04-27T09:13:54.087Z,1008.31
2018-04-27T09:14:54.081Z,1008.28
2018-04-27T09:15:54.044Z,1008.30
2018-04-27T09:16:54.043Z,1008.26
2018-04-27T09:17:53.993Z,1008.24
2018-04-27T09:18:53.978Z,1008.24
2018-04-27T09:19:53.955Z,1008.29
2018-04-27T09:20:53.931Z,1008.30
2018-04-27T09:21:53.899Z,1008.30
2018-04-27T09:22:53.871Z,1008.23
2018-04-27T09:23:53.848Z,1008.21
2018-04-27T09:24:53.827Z,1008.19
2018-04-27T09:25:53.796Z,1008.20
2018-04-27T09:26:53.834Z,1008.19
2018-04-27T09:27:53.756Z,1008.21
2018-04-27T09:28:53.735Z,1008.25
2018-04-27T09:29:53.716Z,1008.23
2018-04-27T09:30:53.693Z,1008.25
2018-04-27T09:31:53.654Z,1008.23
2018-04-27T09:32:53.640Z,1008.24
2018-04-27T09:33:53.613Z,1008.24
2018-04-27T09:34:53.592Z,1008.22
2018-04-27T09:35:53.569Z,1008.22
2018-04-27T09:36:53.566Z,1008.20
2018-04-27T09:37:53.519Z,1008.14
2018-04-27T09:38:53.494Z,1008.12
2018-04-27T09:39:53.479Z,1008.12
2018-04-27T09:40:53.624Z,1008.12
2018-04-27T09:41:53.438Z,1008.16
2018-04-27T09:42:53.401Z,1008.17
2018-04-27T09:43:53.403Z,1008.18
2018-04-27T09:44:53.349Z,1008.10
2018-04-27T09:45:53.335Z,1008.07
2018-04-27T09:46:53.314Z,1008.07
2018-04-27T09:47:53.281Z,1008.05
2018-04-27T09:48:53.260Z,1007.99
2018-04-27T09:49:53.234Z,1008.02
2018-04-27T09:50:53.219Z,1008.01
2018-04-27T09:51:53.192Z,1007.98
2018-04-27T09:52:53.169Z,1007.99
2018-04-27T09:53:53.152Z,1007.94
2018-04-27T09:54:53.113Z,1007.95
2018-04-27T09:55:53.103Z,1007.93
2018-04-27T09:56:53.084Z,1007.89
2018-04-27T09:57:53.043Z,1007.91
2018-04-27T09:58:53.027Z,1007.91
2018-04-27T09:59:52.994Z,1007.88
2018-04-27T10:00:52.986Z,1007.89
2018-04-27T10:01:52.955Z,1007.85
2018-04-27T10:02:52.933Z,1007.80
2018-04-27T10:03:52.912Z,1007.77
2018-04-27T10:04:52.881Z,1007.75
2018-04-27T10:05:52.861Z,1007.73
2018-04-27T10:06:52.839Z,1007.73
2018-04-27T10:07:52.811Z,1007.66
2018-04-27T10:08:52.785Z,1007.67
2018-04-27T10:09:52.759Z,1007.69
2018-04-27T10:10:52.746Z,1007.68
2018-04-27T10:11:52.783Z,1007.71
2018-04-27T10:12:52.694Z,1007.68
2018-04-27T10:13:52.678Z,1007.67
2018-04-27T10:14:52.643Z,1007.67
2018-04-27T10:15:52.628Z,1007.70
2018-04-27T10:16:52.603Z,1007.66
2018-04-27T10:17:52.579Z,1007.64
2018-04-27T10:18:52.559Z,1007.68
2018-04-27T10:19:52.538Z,1007.71
2018-04-27T10:20:52.505Z,1007.71
2018-04-27T10:21:52.487Z,1007.69
2018-04-27T10:22:52.462Z,1007.67
2018-04-27T10:23:52.438Z,1007.63
2018-04-27T10:24:52.421Z,1007.60
2018-04-27T10:25:52.391Z,1007.58
2018-04-27T10:26:52.372Z,1007.59
2018-04-27T10:27:52.351Z,1007.64
2018-04-27T10:28:52.320Z,1007.58
2018-04-27T10:29:52.301Z,1007.69
2018-04-27T10:30:52.279Z,1007.67
2018-04-27T10:31:52.256Z,1007.70
2018-04-27T10:32:52.235Z,1007.61
2018-04-27T10:33:52.209Z,1007.62
2018-04-27T10:34:52.189Z,1007.60
2018-04-27T10:35:52.156Z,1007.61
2018-04-27T10:36:52.145Z,1007.67
2018-04-27T10:37:52.109Z,1007.65
2018-04-27T10:38:52.090Z,1007.59
2018-04-27T10:39:52.074Z,1007.52
2018-04-27T10:40:52.040Z,1007.44
2018-04-27T10:41:52.023Z,1007.42
2018-04-27T10:42:51.996Z,1007.38
2018-04-27T10:43:51.979Z,1007.31
2018-04-27T10:44:51.949Z,1007.31
2018-04-27T10:45:51.977Z,1007.31
2018-04-27T10:46:51.931Z,1007.31
2018-04-27T10:47:51.879Z,1007.31
2018-04-27T10:48:51.860Z,1007.27
2018-04-27T10:49:51.853Z,1007.21
2018-04-27T10:50:51.816Z,1007.25
2018-04-27T10:51:51.797Z,1007.24
2018-04-27T10:52:51.761Z,1007.19
2018-04-27T10:53:51.742Z,1007.23
2018-04-27T10:54:51.740Z,1007.13
2018-04-27T10:55:51.697Z,1007.17
2018-04-27T10:56:51.679Z,1007.16
2018-04-27T10:57:51.653Z,1007.13
2018-04-27T10:58:51.631Z,1007.15
2018-04-27T10:59:51.602Z,1007.14
2018-04-27T11:00:51.582Z,1007.13
2018-04-27T11:01:51.558Z,1007.12
2018-04-27T11:02:51.532Z,1007.10
2018-04-27T11:03:51.512Z,1007.04
2018-04-27T11:04:51.508Z,1007.00
2018-04-27T11:05:51.466Z,1006.98
2018-04-27T11:06:51.448Z,1006.97
2018-04-27T11:07:51.413Z,1007.00
2018-04-27T11:08:51.403Z,1006.96
2018-04-27T11:09:51.372Z,1006.92
2018-04-27T11:10:51.351Z,1006.86
2018-04-27T11:11:51.325Z,1006.76
2018-04-27T11:12:51.300Z,1006.78
2018-04-27T11:13:51.275Z,1006.72
2018-04-27T11:14:51.265Z,1006.76
2018-04-27T11:15:51.240Z,1006.72
2018-04-27T11:16:51.335Z,1006.68
2018-04-27T11:17:51.194Z,1006.68
2018-04-27T11:18:51.163Z,1006.72
2018-04-27T11:19:51.143Z,1006.70
2018-04-27T11:20:51.124Z,1006.68
2018-04-27T11:21:51.103Z,1006.70
2018-04-27T11:22:51.071Z,1006.66
2018-04-27T11:23:51.059Z,1006.68
2018-04-27T11:24:51.033Z,1006.62
2018-04-27T11:25:51.011Z,1006.64
2018-04-27T11:26:50.989Z,1006.60
2018-04-27T11:27:50.964Z,1006.64
2018-04-27T11:28:50.938Z,1006.62
2018-04-27T11:29:50.920Z,1006.56
2018-04-27T11:30:50.889Z,1006.58
2018-04-27T11:31:50.868Z,1006.53
2018-04-27T11:32:50.851Z,1006.53
2018-04-27T11:33:50.820Z,1006.51
2018-04-27T11:34:50.810Z,1006.47
2018-04-27T11:35:50.781Z,1006.40
2018-04-27T11:36:50.778Z,1006.38
2018-04-27T11:37:50.777Z,1006.37
2018-04-27T11:38:50.733Z,1006.34
2018-04-27T11:39:50.735Z,1006.38
2018-04-27T11:40:50.709Z,1006.36
2018-04-27T11:41:50.713Z,1006.41
2018-04-27T11:42:50.681Z,1006.42
2018-04-27T11:43:50.659Z,1006.39
2018-04-27T11:44:50.601Z,1006.46
2018-04-27T11:45:50.609Z,1006.45
2018-04-27T11:46:50.564Z,1006.44
2018-04-27T11:47:50.586Z,1006.47
2018-04-27T11:48:50.523Z,1006.49
2018-04-27T11:49:50.522Z,1006.48
2018-04-27T11:50:50.497Z,1006.50
2018-04-27T11:51:50.505Z,1006.50
2018-04-27T11:52:50.443Z,1006.44
2018-04-27T11:53:50.392Z,1006.39
2018-04-27T11:54:50.340Z,1006.37
2018-04-27T11:55:50.320Z,1006.35
2018-04-27T11:56:50.303Z,1006.31
2018-04-27T11:57:50.279Z,1006.23
2018-04-27T11:58:50.256Z,1006.20
2018-04-27T11:59:50.243Z,1006.22
2018-04-27T12:00:50.248Z,1006.14
2018-04-27T12:01:50.201Z,1006.20
2018-04-27T12:02:50.159Z,1006.19
2018-04-27T12:03:50.146Z,1006.18
2018-04-27T12:04:50.117Z,1006.13
2018-04-27T12:05:50.094Z,1006.15
2018-04-27T12:06:50.089Z,1006.14
2018-04-27T12:07:50.046Z,1006.12
2018-04-27T12:08:50.035Z,1006.08
2018-04-27T12:09:50.017Z,1006.02
2018-04-27T12:10:49.992Z,1006.03
2018-04-27T12:11:49.961Z,1006.02
2018-04-27T12:12:49.936Z,1005.95
2018-04-27T12:13:49.913Z,1005.95
2018-04-27T12:14:49.892Z,1005.94
2018-04-27T12:15:49.866Z,1005.90
2018-04-27T12:16:49.850Z,1005.97
2018-04-27T12:17:49.822Z,1005.88
2018-04-27T12:18:49.805Z,1005.91
2018-04-27T12:19:49.775Z,1005.93
2018-04-27T12:20:49.760Z,1005.89
2018-04-27T12:21:49.738Z,1005.87
2018-04-27T12:22:49.706Z,1005.88
2018-04-27T12:23:49.694Z,1005.84
2018-04-27T12:24:49.661Z,1005.81
2018-04-27T12:25:49.645Z,1005.80
2018-04-27T12:26:49.617Z,1005.70
2018-04-27T12:27:49.603Z,1005.72
2018-04-27T12:28:49.570Z,1005.69
2018-04-27T12:29:49.554Z,1005.67
2018-04-27T12:30:49.537Z,1005.59
2018-04-27T12:31:50.207Z,1005.53
2018-04-27T12:32:49.485Z,1005.52
2018-04-27T12:33:49.527Z,1005.53
2018-04-27T12:34:49.439Z,1005.49
2018-04-27T12:35:49.422Z,1005.46
2018-04-27T12:36:49.394Z,1005.47
2018-04-27T12:37:49.396Z,1005.41
2018-04-27T12:38:49.394Z,1005.47
2018-04-27T12:39:49.325Z,1005.50
2018-04-27T12:40:49.309Z,1005.45
2018-04-27T12:41:49.307Z,1005.44
2018-04-27T12:42:49.266Z,1005.37
2018-04-27T12:43:49.234Z,1005.32
2018-04-27T12:44:49.223Z,1005.29
2018-04-27T12:45:49.195Z,1005.24
2018-04-27T12:46:49.173Z,1005.20
2018-04-27T12:47:49.151Z,1005.14
2018-04-27T12:48:49.128Z,1005.13
2018-04-27T12:49:49.099Z,1005.14
2018-04-27T12:50:49.085Z,1005.13
2018-04-27T12:51:50.602Z,1005.15
2018-04-27T12:52:49.042Z,1005.13
2018-04-27T12:53:49.020Z,1005.13
2018-04-27T12:54:48.988Z,1005.13
2018-04-27T12:55:48.977Z,1005.09
2018-04-27T12:56:48.945Z,1005.11
2018-04-27T12:57:48.927Z,1005.07
2018-04-27T12:58:48.910Z,1005.07
2018-04-27T12:59:48.883Z,1005.06
2018-04-27T13:00:48.864Z,1005.08
2018-04-27T13:01:48.841Z,1005.06
2018-04-27T13:02:48.814Z,1005.09
2018-04-27T13:03:48.797Z,1005.06
2018-04-27T13:04:48.790Z,1005.01
2018-04-27T13:05:48.779Z,1005.00
2018-04-27T13:06:48.737Z,1005.02
2018-04-27T13:07:48.707Z,1005.01
2018-04-27T13:08:48.691Z,1005.03
2018-04-27T13:09:48.686Z,1004.97
2018-04-27T13:10:48.640Z,1004.98
2018-04-27T13:11:48.621Z,1005.02
2018-04-27T13:12:50.371Z,1004.98
2018-04-27T13:13:48.575Z,1005.04
2018-04-27T13:14:48.557Z,1005.00
2018-04-27T13:15:48.545Z,1004.98
2018-04-27T13:16:48.507Z,1004.94
2018-04-27T13:17:48.485Z,1004.91
2018-04-27T13:18:48.465Z,1004.83
2018-04-27T13:19:48.443Z,1004.81
2018-04-27T13:20:48.415Z,1004.83
2018-04-27T13:21:48.396Z,1004.84
2018-04-27T13:22:48.382Z,1004.79
2018-04-27T13:23:48.353Z,1004.85
2018-04-27T13:24:48.328Z,1004.85
2018-04-27T13:25:48.304Z,1004.84
2018-04-27T13:26:48.286Z,1004.81
2018-04-27T13:27:48.260Z,1004.76
2018-04-27T13:28:48.247Z,1004.80
2018-04-27T13:29:48.220Z,1004.77
2018-04-27T13:30:48.196Z,1004.77
2018-04-27T13:31:48.170Z,1004.71
2018-04-27T13:32:48.157Z,1004.76
2018-04-27T13:33:48.128Z,1004.74
2018-04-27T13:34:48.115Z,1004.73
2018-04-27T13:35:48.091Z,1004.63
2018-04-27T13:36:48.071Z,1004.62
2018-04-27T13:37:48.039Z,1004.57
2018-04-27T13:38:48.025Z,1004.60
2018-04-27T13:39:48.008Z,1004.53
2018-04-27T13:40:47.980Z,1004.57
2018-04-27T13:41:47.955Z,1004.50
2018-04-27T13:42:47.930Z,1004.50
2018-04-27T13:43:47.914Z,1004.50
2018-04-27T13:44:47.885Z,1004.52
2018-04-27T13:45:47.864Z,1004.46
2018-04-27T13:46:47.853Z,1004.47
2018-04-27T13:47:47.827Z,1004.46
2018-04-27T13:48:47.797Z,1004.42
2018-04-27T13:49:47.782Z,1004.46
2018-04-27T13:50:47.754Z,1004.45
2018-04-27T13:51:47.762Z,1004.48
2018-04-27T13:52:47.715Z,1004.51
2018-04-27T13:53:47.692Z,1004.55
2018-04-27T13:54:47.673Z,1004.55
2018-04-27T13:55:47.654Z,1004.56
2018-04-27T13:56:47.620Z,1004.50
2018-04-27T13:57:47.605Z,1004.50
2018-04-27T13:58:47.602Z,1004.50
2018-04-27T13:59:47.556Z,1004.49
2018-04-27T14:00:47.542Z,1004.46
2018-04-27T14:01:47.519Z,1004.45
2018-04-27T14:02:47.519Z,1004.48
2018-04-27T14:03:47.527Z,1004.49
2018-04-27T14:04:47.450Z,1004.49
2018-04-27T14:05:47.437Z,1004.46
2018-04-27T14:06:47.431Z,1004.44
2018-04-27T14:07:47.389Z,1004.45
2018-04-27T14:08:47.367Z,1004.40
2018-04-27T14:09:47.347Z,1004.41
2018-04-27T14:10:47.330Z,1004.33
2018-04-27T14:11:47.293Z,1004.34
2018-04-27T14:12:47.284Z,1004.29
2018-04-27T14:13:47.256Z,1004.28
2018-04-27T14:14:47.235Z,1004.28
2018-04-27T14:15:47.216Z,1004.27
2018-04-27T14:16:47.186Z,1004.26
2018-04-27T14:17:47.166Z,1004.24
2018-04-27T14:18:47.152Z,1004.26
2018-04-27T14:19:47.128Z,1004.22
2018-04-27T14:20:47.102Z,1004.20
2018-04-27T14:21:47.084Z,1004.22
2018-04-27T14:22:47.057Z,1004.17
2018-04-27T14:23:47.035Z,1004.18
2018-04-27T14:24:47.044Z,1004.16
2018-04-27T14:25:46.994Z,1004.15
2018-04-27T14:26:46.992Z,1004.15
2018-04-27T14:27:46.950Z,1004.13
2018-04-27T14:28:46.923Z,1004.09
2018-04-27T14:29:46.968Z,1004.09
2018-04-27T14:30:46.882Z,1004.09
2018-04-27T14:31:46.864Z,1004.03
2018-04-27T14:32:46.846Z,1003.99
2018-04-27T14:33:46.834Z,1003.97
2018-04-27T14:34:46.800Z,1003.95
2018-04-27T14:35:46.786Z,1003.94
2018-04-27T14:36:46.758Z,1003.87
2018-04-27T14:37:46.742Z,1003.85
2018-04-27T14:38:46.711Z,1003.84
2018-04-27T14:39:46.691Z,1003.85
2018-04-27T14:40:46.672Z,1003.84
2018-04-27T14:41:47.687Z,1003.85
2018-04-27T14:42:46.705Z,1003.83
2018-04-27T14:43:48.218Z,1003.84
2018-04-27T14:44:46.667Z,1003.83
2018-04-27T14:45:46.649Z,1003.78
2018-04-27T14:46:46.619Z,1003.79
2018-04-27T14:47:46.611Z,1003.79
2018-04-27T14:48:46.582Z,1003.82
2018-04-27T14:49:46.567Z,1003.80
2018-04-27T14:50:46.525Z,1003.82
2018-04-27T14:51:46.432Z,1003.78
2018-04-27T14:52:46.419Z,1003.76
2018-04-27T14:53:46.434Z,1003.76
2018-04-27T14:54:46.364Z,1003.75
2018-04-27T14:55:46.358Z,1003.79
2018-04-27T14:56:46.327Z,1003.75
2018-04-27T14:57:46.352Z,1003.77
2018-04-27T14:58:46.311Z,1003.77
2018-04-27T14:59:46.270Z,1003.76
2018-04-27T15:00:46.225Z,1003.78
2018-04-27T15:01:46.266Z,1003.78
2018-04-27T15:02:46.196Z,1003.76
2018-04-27T15:03:46.157Z,1003.72
2018-04-27T15:04:46.146Z,1003.64
2018-04-27T15:05:46.115Z,1003.64
2018-04-27T15:06:46.101Z,1003.62
2018-04-27T15:07:46.075Z,1003.62
2018-04-27T15:08:46.049Z,1003.57
2018-04-27T15:09:46.035Z,1003.57
2018-04-27T15:10:46.000Z,1003.54
2018-04-27T15:11:45.982Z,1003.56
2018-04-27T15:12:45.964Z,1003.55
2018-04-27T15:13:45.941Z,1003.54
2018-04-27T15:14:45.918Z,1003.56
2018-04-27T15:15:45.890Z,1003.53
2018-04-27T15:16:45.883Z,1003.57
2018-04-27T15:17:45.848Z,1003.58
2018-04-27T15:18:45.829Z,1003.58
2018-04-27T15:19:45.808Z,1003.59
2018-04-27T15:20:45.777Z,1003.57
2018-04-27T15:21:45.783Z,1003.55
2018-04-27T15:22:45.736Z,1003.55
2018-04-27T15:23:45.738Z,1003.51
2018-04-27T15:24:45.695Z,1003.47
2018-04-27T15:25:45.666Z,1003.47
2018-04-27T15:26:45.653Z,1003.45
2018-04-27T15:27:45.630Z,1003.45
2018-04-27T15:28:45.603Z,1003.44
2018-04-27T15:29:45.586Z,1003.43
2018-04-27T15:30:45.554Z,1003.45
2018-04-27T15:31:45.541Z,1003.43
2018-04-27T15:32:45.510Z,1003.44
2018-04-27T15:33:45.560Z,1003.47
2018-04-27T15:34:45.474Z,1003.43
2018-04-27T15:35:45.445Z,1003.40
2018-04-27T15:36:45.431Z,1003.40
2018-04-27T15:37:45.398Z,1003.40
2018-04-27T15:38:45.385Z,1003.42
2018-04-27T15:39:45.354Z,1003.39
2018-04-27T15:40:45.340Z,1003.39
2018-04-27T15:41:45.340Z,1003.37
2018-04-27T15:42:45.285Z,1003.36
2018-04-27T15:43:45.272Z,1003.34
2018-04-27T15:44:45.242Z,1003.35
2018-04-27T15:45:45.218Z,1003.35
2018-04-27T15:46:45.208Z,1003.30
2018-04-27T15:47:45.181Z,1003.34
2018-04-27T15:48:45.163Z,1003.32
2018-04-27T15:49:45.132Z,1003.34
2018-04-27T15:50:45.107Z,1003.31
2018-04-27T15:51:45.103Z,1003.34
2018-04-27T15:52:45.062Z,1003.30
2018-04-27T15:53:45.042Z,1003.31
2018-04-27T15:54:45.023Z,1003.33
2018-04-27T15:55:44.998Z,1003.34
2018-04-27T15:56:44.978Z,1003.34
2018-04-27T15:57:44.954Z,1003.32
2018-04-27T15:58:44.932Z,1003.30
2018-04-27T15:59:44.911Z,1003.35
2018-04-27T16:00:44.885Z,1003.36
2018-04-27T16:01:44.871Z,1003.30
2018-04-27T16:02:44.844Z,1003.31
2018-04-27T16:03:44.825Z,1003.27
2018-04-27T16:04:44.798Z,1003.26
2018-04-27T16:05:44.782Z,1003.27
2018-04-27T16:06:44.747Z,1003.28
2018-04-27T16:07:44.730Z,1003.28
2018-04-27T16:08:44.705Z,1003.25
2018-04-27T16:09:44.680Z,1003.23
2018-04-27T16:10:44.666Z,1003.23
2018-04-27T16:11:44.633Z,1003.24
2018-04-27T16:12:44.620Z,1003.24
2018-04-27T16:13:44.596Z,1003.22
2018-04-27T16:14:44.689Z,1003.21
2018-04-27T16:15:44.552Z,1003.20
2018-04-27T16:16:44.520Z,1003.21
2018-04-27T16:17:44.503Z,1003.20
2018-04-27T16:18:44.485Z,1003.20
2018-04-27T16:19:44.453Z,1003.18
2018-04-27T16:20:44.495Z,1003.17
2018-04-27T16:21:44.410Z,1003.17
2018-04-27T16:22:44.395Z,1003.16
2018-04-27T16:23:44.368Z,1003.11
2018-04-27T16:24:44.347Z,1003.09
2018-04-27T16:25:44.318Z,1003.04
2018-04-27T16:26:44.318Z,1003.06
2018-04-27T16:27:44.279Z,1003.09
2018-04-27T16:28:44.248Z,1003.10
2018-04-27T16:29:44.243Z,1003.11
2018-04-27T16:30:44.208Z,1003.13
2018-04-27T16:31:45.147Z,1003.17
2018-04-27T16:32:44.169Z,1003.21
2018-04-27T16:33:44.144Z,1003.19
2018-04-27T16:34:44.113Z,1003.17
2018-04-27T16:35:44.095Z,1003.14
2018-04-27T16:36:44.068Z,1003.13
2018-04-27T16:37:44.073Z,1003.12
2018-04-27T16:38:44.032Z,1003.17
2018-04-27T16:39:44.001Z,1003.10
2018-04-27T16:40:43.987Z,1003.11
2018-04-27T16:41:44.024Z,1003.14
2018-04-27T16:42:43.940Z,1003.08
2018-04-27T16:43:43.909Z,1003.12
2018-04-27T16:44:43.896Z,1003.08
2018-04-27T16:45:43.876Z,1003.10
2018-04-27T16:46:43.886Z,1003.10
2018-04-27T16:47:43.847Z,1003.11
2018-04-27T16:48:43.798Z,1003.07
2018-04-27T16:49:43.772Z,1003.07
2018-04-27T16:50:43.763Z,1003.05
2018-04-27T16:51:43.736Z,1003.09
2018-04-27T16:52:43.716Z,1003.09
2018-04-27T16:53:43.694Z,1003.10
2018-04-27T16:54:43.663Z,1003.10
2018-04-27T16:55:43.649Z,1003.12
2018-04-27T16:56:43.618Z,1003.12
2018-04-27T16:57:43.604Z,1003.13
2018-04-27T16:58:43.571Z,1003.17
2018-04-27T16:59:43.560Z,1003.14
2018-04-27T17:00:43.530Z,1003.15
2018-04-27T17:01:43.548Z,1003.16
2018-04-27T17:02:43.490Z,1003.13
2018-04-27T17:03:43.464Z,1003.11
2018-04-27T17:04:43.447Z,1003.10
2018-04-27T17:05:43.429Z,1003.11
2018-04-27T17:06:43.395Z,1003.05
2018-04-27T17:07:43.383Z,1003.06
2018-04-27T17:08:43.354Z,1003.01
2018-04-27T17:09:43.330Z,1003.00
2018-04-27T17:10:43.312Z,1003.02
2018-04-27T17:11:43.292Z,1002.96
2018-04-27T17:12:43.261Z,1002.97
2018-04-27T17:13:43.234Z,1002.97
2018-04-27T17:14:43.224Z,1002.93
2018-04-27T17:15:43.200Z,1002.93
2018-04-27T17:16:43.175Z,1002.90
2018-04-27T17:17:43.159Z,1002.89
2018-04-27T17:18:43.153Z,1002.92
2018-04-27T17:19:43.107Z,1002.92
2018-04-27T17:20:43.087Z,1002.89
2018-04-27T17:21:43.064Z,1002.87
2018-04-27T17:22:43.050Z,1002.86
2018-04-27T17:23:43.015Z,1002.86
2018-04-27T17:24:42.997Z,1002.82
2018-04-27T17:25:42.971Z,1002.79
2018-04-27T17:26:42.953Z,1002.80
2018-04-27T17:27:42.931Z,1002.75
2018-04-27T17:28:43.000Z,1002.78
2018-04-27T17:29:42.888Z,1002.75
2018-04-27T17:30:42.864Z,1002.76
2018-04-27T17:31:44.352Z,1002.73
2018-04-27T17:32:42.818Z,1002.71
2018-04-27T17:33:42.789Z,1002.68
2018-04-27T17:34:42.779Z,1002.65
2018-04-27T17:35:42.752Z,1002.66
2018-04-27T17:36:42.817Z,1002.66
2018-04-27T17:37:42.700Z,1002.65
2018-04-27T17:38:42.688Z,1002.65
2018-04-27T17:39:42.679Z,1002.67
2018-04-27T17:40:42.645Z,1002.66
2018-04-27T17:41:42.618Z,1002.63
2018-04-27T17:42:42.611Z,1002.67
2018-04-27T17:43:42.571Z,1002.66
2018-04-27T17:44:42.550Z,1002.65
2018-04-27T17:45:42.597Z,1002.66
2018-04-27T17:46:42.504Z,1002.66
2018-04-27T17:47:42.495Z,1002.62
2018-04-27T17:48:42.555Z,1002.66
2018-04-27T17:49:42.441Z,1002.65
2018-04-27T17:50:42.456Z,1002.64
2018-04-27T17:51:42.384Z,1002.65
2018-04-27T17:52:42.442Z,1002.68
2018-04-27T17:53:42.343Z,1002.65
2018-04-27T17:54:42.315Z,1002.69
2018-04-27T17:55:42.300Z,1002.64
2018-04-27T17:56:42.276Z,1002.67
2018-04-27T17:57:42.248Z,1002.66
2018-04-27T17:58:42.231Z,1002.69
2018-04-27T17:59:42.206Z,1002.65
2018-04-27T18:00:42.182Z,1002.64
2018-04-27T18:01:42.161Z,1002.69
2018-04-27T18:02:42.136Z,1002.69
2018-04-27T18:03:42.111Z,1002.68
2018-04-27T18:04:42.096Z,1002.66
2018-04-27T18:05:42.076Z,1002.67
2018-04-27T18:06:42.053Z,1002.66
2018-04-27T18:07:42.027Z,1002.68
2018-04-27T18:08:42.001Z,1002.64
2018-04-27T18:09:41.979Z,1002.64
2018-04-27T18:10:41.957Z,1002.68
2018-04-27T18:11:42.029Z,1002.67
2018-04-27T18:12:41.905Z,1002.65
2018-04-27T18:13:41.884Z,1002.68
2018-04-27T18:14:41.862Z,1002.70
2018-04-27T18:15:41.853Z,1002.70
2018-04-27T18:16:41.898Z,1002.71
2018-04-27T18:17:41.946Z,1002.70
2018-04-27T18:18:41.770Z,1002.71
2018-04-27T18:19:41.747Z,1002.70
2018-04-27T18:20:41.730Z,1002.72
2018-04-27T18:21:41.696Z,1002.75
2018-04-27T18:22:41.686Z,1002.71
2018-04-27T18:23:41.654Z,1002.76
2018-04-27T18:24:41.629Z,1002.79
2018-04-27T18:25:41.643Z,1002.75
2018-04-27T18:26:41.590Z,1002.78
2018-04-27T18:27:41.691Z,1002.79
2018-04-27T18:28:41.537Z,1002.74
2018-04-27T18:29:41.514Z,1002.77
2018-04-27T18:30:41.512Z,1002.77
2018-04-27T18:31:41.482Z,1002.75
2018-04-27T18:32:41.474Z,1002.74
2018-04-27T18:33:41.431Z,1002.73
2018-04-27T18:34:41.400Z,1002.71
2018-04-27T18:35:41.466Z,1002.69
2018-04-27T18:36:41.360Z,1002.69
2018-04-27T18:37:41.332Z,1002.69
2018-04-27T18:38:41.308Z,1002.67
2018-04-27T18:39:41.281Z,1002.61
2018-04-27T18:40:41.281Z,1002.59
2018-04-27T18:41:41.229Z,1002.58
2018-04-27T18:42:41.263Z,1002.62
2018-04-27T18:43:41.243Z,1002.62
2018-04-27T18:44:41.191Z,1002.57
2018-04-27T18:45:41.144Z,1002.61
2018-04-27T18:46:41.124Z,1002.58
2018-04-27T18:47:41.091Z,1002.58
2018-04-27T18:48:41.071Z,1002.54
2018-04-27T18:49:41.043Z,1002.53
2018-04-27T18:50:41.042Z,1002.53
2018-04-27T18:51:41.002Z,1002.53
2018-04-27T18:52:40.983Z,1002.59
2018-04-27T18:53:40.955Z,1002.55
2018-04-27T18:54:40.937Z,1002.59
2018-04-27T18:55:40.899Z,1002.59
2018-04-27T18:56:40.885Z,1002.63
2018-04-27T18:57:40.866Z,1002.58
2018-04-27T18:58:40.834Z,1002.62
2018-04-27T18:59:40.808Z,1002.63
2018-04-27T19:00:40.790Z,1002.63
2018-04-27T19:01:40.756Z,1002.67
2018-04-27T19:02:40.744Z,1002.65
2018-04-27T19:03:40.713Z,1002.65